createdAt,value
2023-05-13T00:00:38.821Z,2.92
2023-05-13T00:03:05.363Z,3.03
2023-05-13T00:05:31.870Z,3.05
2023-05-13T00:08:02.044Z,2.58
2023-05-13T00:10:28.667Z,2.92
2023-05-13T00:12:55.145Z,3.28
2023-05-13T00:15:21.700Z,3.08
2023-05-13T00:17:48.208Z,3.38
2023-05-13T00:20:14.680Z,3.00
2023-05-13T00:22:41.209Z,3.30
2023-05-13T00:25:08.215Z,3.97
2023-05-13T00:27:35.216Z,4.30
2023-05-13T00:30:01.763Z,4.55
2023-05-13T00:32:28.306Z,4.85
2023-05-13T00:34:54.814Z,4.53
2023-05-13T00:37:21.315Z,4.70
2023-05-13T00:39:47.801Z,4.63
2023-05-13T00:42:14.588Z,4.90
2023-05-13T00:44:41.256Z,4.25
2023-05-13T00:47:07.943Z,4.45
2023-05-13T00:49:34.449Z,4.68
2023-05-13T00:52:01.517Z,4.75
2023-05-13T00:54:28.866Z,4.65
2023-05-13T00:56:56.980Z,5.20
2023-05-13T00:59:24.430Z,5.10
2023-05-13T01:02:02.938Z,5.43
2023-05-13T01:05:02.420Z,5.00
2023-05-13T01:07:44.573Z,5.50
2023-05-13T01:10:16.960Z,5.55
2023-05-13T01:12:44.759Z,5.43
2023-05-13T01:15:17.154Z,5.60
2023-05-13T01:18:09.942Z,5.88
2023-05-13T01:20:37.890Z,5.70
2023-05-13T01:23:04.458Z,5.80
2023-05-13T01:25:31.358Z,5.45
2023-05-13T01:27:57.893Z,5.57
2023-05-13T01:30:24.481Z,5.55
2023-05-13T01:32:51.000Z,5.30
2023-05-13T01:35:17.533Z,6.18
2023-05-13T01:37:43.989Z,5.68
2023-05-13T01:40:24.098Z,6.25
2023-05-13T01:42:57.353Z,6.45
2023-05-13T01:45:23.821Z,6.63
2023-05-13T01:47:50.328Z,6.43
2023-05-13T01:50:16.797Z,7.10
2023-05-13T01:52:43.260Z,7.15
2023-05-13T01:55:09.778Z,6.95
2023-05-13T01:57:36.255Z,7.25
2023-05-13T02:00:04.034Z,7.75
2023-05-13T02:02:30.629Z,6.47
2023-05-13T02:04:57.172Z,7.50
2023-05-13T02:07:23.724Z,7.38
2023-05-13T02:09:50.181Z,7.18
2023-05-13T02:12:16.642Z,7.60
2023-05-13T02:14:43.140Z,7.45
2023-05-13T02:17:09.593Z,7.75
2023-05-13T02:19:36.062Z,7.53
2023-05-13T02:22:02.530Z,7.85
2023-05-13T02:24:30.658Z,7.07
2023-05-13T02:26:57.114Z,7.53
2023-05-13T02:29:23.611Z,7.68
2023-05-13T02:31:50.374Z,8.10
2023-05-13T02:34:16.916Z,7.75
2023-05-13T02:36:43.418Z,9.38
2023-05-13T02:39:09.915Z,8.80
2023-05-13T02:41:36.429Z,9.13
2023-05-13T02:44:02.905Z,8.07
2023-05-13T02:46:29.469Z,8.23
2023-05-13T02:48:56.060Z,9.10
2023-05-13T02:51:22.529Z,8.90
2023-05-13T02:53:49.000Z,8.10
2023-05-13T02:56:16.803Z,7.80
2023-05-13T02:58:43.628Z,7.05
2023-05-13T03:01:10.210Z,7.60
2023-05-13T03:03:37.172Z,8.57
2023-05-13T03:06:04.502Z,9.20
2023-05-13T03:08:31.316Z,8.88
2023-05-13T03:10:58.752Z,9.45
2023-05-13T03:13:25.272Z,9.80
2023-05-13T03:15:51.849Z,9.65
2023-05-13T03:18:18.314Z,9.73
2023-05-13T03:20:44.873Z,9.43
2023-05-13T03:23:11.310Z,9.52
2023-05-13T03:25:37.795Z,10.55
2023-05-13T03:28:04.389Z,9.88
2023-05-13T03:30:31.028Z,10.25
2023-05-13T03:32:57.951Z,10.95
2023-05-13T03:35:24.460Z,11.07
2023-05-13T03:37:50.911Z,11.32
2023-05-13T03:40:17.446Z,11.52
2023-05-13T03:42:43.903Z,12.45
2023-05-13T03:45:11.436Z,11.40
2023-05-13T03:47:39.382Z,11.27
2023-05-13T03:50:06.455Z,11.77
2023-05-13T03:52:32.918Z,9.98
2023-05-13T03:54:59.392Z,12.02
2023-05-13T03:57:25.842Z,10.95
2023-05-13T03:59:52.308Z,11.15
2023-05-13T04:02:19.012Z,10.82
2023-05-13T04:04:45.691Z,11.55
2023-05-13T04:07:12.260Z,12.02
2023-05-13T04:09:39.079Z,11.73
2023-05-13T04:12:05.799Z,11.88
2023-05-13T04:14:32.342Z,12.25
2023-05-13T04:16:58.878Z,11.82
2023-05-13T04:19:25.459Z,12.70
2023-05-13T04:21:51.952Z,12.43
2023-05-13T04:24:18.417Z,12.30
2023-05-13T04:26:44.863Z,12.70
2023-05-13T04:29:11.335Z,12.27
2023-05-13T04:31:37.890Z,12.45
2023-05-13T04:34:04.460Z,12.25
2023-05-13T04:36:31.237Z,12.40
2023-05-13T04:38:57.687Z,11.88
2023-05-13T04:41:24.234Z,11.82
2023-05-13T04:43:50.719Z,12.00
2023-05-13T04:46:17.231Z,11.63
2023-05-13T04:48:48.101Z,11.32
2023-05-13T04:51:16.045Z,11.27
2023-05-13T04:53:43.097Z,11.95
2023-05-13T04:56:09.647Z,11.50
2023-05-13T04:58:36.131Z,11.60
2023-05-13T05:01:02.615Z,11.52
2023-05-13T05:03:29.152Z,11.13
2023-05-13T05:05:55.649Z,11.02
2023-05-13T05:08:22.113Z,10.75
2023-05-13T05:10:48.574Z,11.00
2023-05-13T05:13:15.139Z,11.00
2023-05-13T05:15:41.809Z,10.75
2023-05-13T05:18:08.687Z,11.00
2023-05-13T05:20:35.243Z,11.15
2023-05-13T05:23:01.909Z,11.52
2023-05-13T05:25:28.394Z,10.50
2023-05-13T05:27:54.945Z,10.80
2023-05-13T05:30:21.629Z,11.00
2023-05-13T05:32:48.352Z,11.00
2023-05-13T05:35:16.804Z,10.68
2023-05-13T05:37:43.282Z,11.38
2023-05-13T05:40:10.214Z,11.27
2023-05-13T05:42:38.108Z,11.65
2023-05-13T05:45:04.897Z,11.20
2023-05-13T05:47:32.547Z,10.88
2023-05-13T05:49:59.039Z,11.25
2023-05-13T05:52:25.719Z,10.32
2023-05-13T05:54:52.195Z,9.95
2023-05-13T05:57:18.777Z,10.60
2023-05-13T05:59:45.397Z,11.05
2023-05-13T06:02:11.972Z,10.52
2023-05-13T06:04:38.518Z,10.45
2023-05-13T06:07:05.295Z,10.20
2023-05-13T06:09:31.802Z,10.25
2023-05-13T06:11:58.249Z,10.48
2023-05-13T06:14:24.718Z,9.93
2023-05-13T06:16:52.477Z,10.45
2023-05-13T06:19:19.959Z,9.73
2023-05-13T06:21:46.592Z,9.75
2023-05-13T06:24:13.066Z,8.77
2023-05-13T06:26:39.534Z,9.05
2023-05-13T06:29:06.004Z,9.23
2023-05-13T06:31:32.509Z,9.07
2023-05-13T06:33:58.998Z,8.45
2023-05-13T06:36:26.360Z,8.48
2023-05-13T06:38:53.337Z,8.85
2023-05-13T06:41:19.785Z,7.47
2023-05-13T06:43:46.318Z,7.93
2023-05-13T06:46:12.892Z,6.90
2023-05-13T06:48:39.366Z,6.95
2023-05-13T06:51:05.953Z,7.15
2023-05-13T06:53:32.814Z,6.65
2023-05-13T06:55:59.266Z,6.80
2023-05-13T06:58:25.754Z,6.10
2023-05-13T07:00:52.290Z,7.28
2023-05-13T07:03:18.786Z,6.45
2023-05-13T07:05:45.299Z,6.63
2023-05-13T07:08:17.643Z,6.38
2023-05-13T07:10:44.368Z,6.57
2023-05-13T07:13:11.577Z,6.57
2023-05-13T07:15:38.094Z,5.93
2023-05-13T07:18:04.644Z,6.38
2023-05-13T07:20:31.411Z,6.20
2023-05-13T07:22:57.986Z,6.22
2023-05-13T07:25:24.553Z,6.72
2023-05-13T07:27:51.018Z,5.80
2023-05-13T07:30:17.486Z,5.82
2023-05-13T07:32:44.256Z,5.80
2023-05-13T07:35:10.817Z,6.03
2023-05-13T07:37:37.313Z,5.45
2023-05-13T07:40:05.868Z,5.18
2023-05-13T07:42:33.048Z,5.50
2023-05-13T07:44:59.993Z,5.55
2023-05-13T07:47:28.904Z,5.25
2023-05-13T07:49:55.702Z,5.18
2023-05-13T07:52:22.202Z,5.20
2023-05-13T07:54:48.744Z,5.60
2023-05-13T07:57:15.522Z,5.40
2023-05-13T07:59:44.551Z,5.80
2023-05-13T08:02:11.930Z,5.95
2023-05-13T08:04:38.434Z,5.57
2023-05-13T08:07:04.975Z,5.80
2023-05-13T08:09:31.431Z,5.93
2023-05-13T08:11:57.953Z,5.13
2023-05-13T08:14:24.468Z,5.32
2023-05-13T08:16:51.101Z,5.85
2023-05-13T08:19:17.802Z,5.47
2023-05-13T08:21:44.683Z,5.75
2023-05-13T08:24:11.211Z,5.63
2023-05-13T08:26:37.729Z,5.32
2023-05-13T08:29:04.261Z,5.28
2023-05-13T08:31:32.008Z,5.50
2023-05-13T08:33:58.569Z,5.20
2023-05-13T08:36:26.433Z,4.90
2023-05-13T08:38:53.153Z,4.97
2023-05-13T08:41:21.924Z,5.18
2023-05-13T08:43:48.656Z,5.18
2023-05-13T08:46:16.515Z,4.60
2023-05-13T08:48:43.061Z,4.85
2023-05-13T08:51:09.763Z,4.70
2023-05-13T08:53:36.304Z,5.00
2023-05-13T08:56:02.757Z,4.40
2023-05-13T08:58:29.260Z,4.95
2023-05-13T09:00:55.789Z,4.70
2023-05-13T09:03:22.296Z,4.60
2023-05-13T09:05:48.803Z,4.57
2023-05-13T09:08:15.278Z,5.10
2023-05-13T09:10:41.747Z,5.28
2023-05-13T09:13:08.211Z,4.78
2023-05-13T09:15:34.736Z,4.53
2023-05-13T09:18:05.318Z,5.30
2023-05-13T09:20:32.128Z,5.22
2023-05-13T09:23:08.799Z,5.13
2023-05-13T09:25:35.693Z,5.03
2023-05-13T09:28:03.174Z,5.15
2023-05-13T09:30:46.187Z,5.72
2023-05-13T09:33:17.341Z,5.45
2023-05-13T09:35:45.428Z,4.93
2023-05-13T09:38:17.974Z,4.78
2023-05-13T09:40:55.010Z,5.30
2023-05-13T09:43:22.363Z,5.18
2023-05-13T09:45:55.582Z,5.38
2023-05-13T09:48:25.989Z,4.45
2023-05-13T09:50:53.565Z,5.22
2023-05-13T09:53:22.681Z,4.93
2023-05-13T09:55:50.898Z,5.05
2023-05-13T09:58:17.527Z,4.80
2023-05-13T10:00:44.387Z,4.95
2023-05-13T10:03:11.991Z,4.38
2023-05-13T10:05:41.746Z,4.60
2023-05-13T10:08:12.836Z,5.00
2023-05-13T10:10:40.089Z,4.30
2023-05-13T10:13:08.982Z,4.20
2023-05-13T10:15:35.486Z,3.83
2023-05-13T10:18:02.004Z,4.30
2023-05-13T10:20:28.630Z,4.13
2023-05-13T10:22:55.567Z,3.58
2023-05-13T10:25:22.339Z,3.30
2023-05-13T10:27:49.187Z,2.80
2023-05-13T10:30:16.144Z,3.00
2023-05-13T10:32:42.686Z,2.50
2023-05-13T10:35:13.406Z,3.13
2023-05-13T10:37:54.121Z,2.67
2023-05-13T10:40:48.350Z,2.97
2023-05-13T10:43:21.955Z,2.83
2023-05-13T10:45:49.785Z,2.78
2023-05-13T10:48:16.931Z,2.42
2023-05-13T10:50:54.620Z,2.13
2023-05-13T10:53:25.511Z,2.58
2023-05-13T10:55:55.971Z,1.77
2023-05-13T10:58:28.031Z,1.90
2023-05-13T11:00:54.532Z,2.30
2023-05-13T11:03:21.051Z,2.90
2023-05-13T11:05:58.530Z,2.53
2023-05-13T11:08:41.086Z,3.17
2023-05-13T11:11:31.409Z,3.05
2023-05-13T11:14:23.270Z,3.00
2023-05-13T11:17:04.985Z,2.15
2023-05-13T11:19:38.518Z,2.33
2023-05-13T11:24:40.661Z,2.13
2023-05-13T11:27:16.450Z,2.45
2023-05-13T11:29:57.606Z,2.28
2023-05-13T11:33:02.673Z,2.05
2023-05-13T11:35:31.104Z,2.13
2023-05-13T11:38:00.311Z,3.17
2023-05-13T11:40:27.944Z,2.72
2023-05-13T11:42:54.550Z,2.45
2023-05-13T11:45:22.904Z,2.70
2023-05-13T11:47:50.158Z,2.42
2023-05-13T11:50:20.545Z,2.20
2023-05-13T11:52:54.559Z,2.10
2023-05-13T11:58:01.655Z,2.10
2023-05-13T12:00:31.645Z,1.90
2023-05-13T12:02:58.650Z,1.60
2023-05-13T12:05:25.586Z,1.50
2023-05-13T12:07:52.479Z,1.63
2023-05-13T12:10:18.987Z,1.70
2023-05-13T12:12:45.804Z,1.60
2023-05-13T12:15:21.836Z,1.63
2023-05-13T12:17:49.308Z,1.67
2023-05-13T12:20:19.827Z,1.50
2023-05-13T12:22:46.733Z,1.25
2023-05-13T12:25:35.220Z,1.67
2023-05-13T12:28:12.184Z,1.35
2023-05-13T12:30:40.423Z,1.20
2023-05-13T12:33:12.932Z,1.20
2023-05-13T12:35:39.420Z,1.02
2023-05-13T12:38:06.294Z,1.23
2023-05-13T12:40:32.787Z,1.30
2023-05-13T12:43:00.045Z,1.10
2023-05-13T12:45:30.512Z,1.20
2023-05-13T12:47:57.292Z,1.20
2023-05-13T12:50:23.979Z,0.90
2023-05-13T12:52:50.433Z,0.85
2023-05-13T12:55:17.154Z,0.80
2023-05-13T12:57:43.752Z,0.88
2023-05-13T13:00:10.760Z,1.15
2023-05-13T13:02:39.468Z,1.17
2023-05-13T13:05:06.467Z,1.30
2023-05-13T13:07:32.999Z,1.50
2023-05-13T13:09:59.455Z,1.42
2023-05-13T13:12:25.934Z,1.70
2023-05-13T13:14:52.372Z,1.70
2023-05-13T13:17:18.823Z,1.70
2023-05-13T13:19:45.583Z,2.20
2023-05-13T13:22:12.045Z,1.80
2023-05-13T13:24:38.545Z,1.80
2023-05-13T13:27:05.217Z,1.73
2023-05-13T13:29:31.707Z,2.05
2023-05-13T13:31:58.335Z,1.95
2023-05-13T13:34:24.917Z,1.40
2023-05-13T13:36:51.383Z,1.50
2023-05-13T13:39:17.833Z,1.23
2023-05-13T13:41:44.294Z,1.52
2023-05-13T13:44:11.308Z,1.67
2023-05-13T13:46:38.027Z,2.00
2023-05-13T13:49:16.292Z,1.80
2023-05-13T13:51:49.445Z,1.90
2023-05-13T13:54:15.906Z,1.40
2023-05-13T13:56:42.765Z,1.70
2023-05-13T13:59:09.275Z,1.80
2023-05-13T14:01:35.807Z,1.38
2023-05-13T14:04:12.186Z,1.92
2023-05-13T14:06:38.650Z,1.90
2023-05-13T14:09:05.740Z,2.08
2023-05-13T14:11:32.524Z,1.80
2023-05-13T14:13:59.008Z,2.00
2023-05-13T14:16:25.678Z,1.70
2023-05-13T14:18:52.228Z,1.85
2023-05-13T14:21:18.765Z,1.90
2023-05-13T14:23:45.275Z,1.77
2023-05-13T14:26:13.232Z,1.85
2023-05-13T14:28:39.700Z,1.83
2023-05-13T14:31:06.167Z,1.88
2023-05-13T14:33:32.719Z,2.08
2023-05-13T14:35:59.179Z,2.30
2023-05-13T14:38:27.497Z,2.00
2023-05-13T14:40:57.199Z,2.25
2023-05-13T14:43:23.990Z,2.15
2023-05-13T14:45:50.645Z,2.03
2023-05-13T14:48:17.145Z,2.10
2023-05-13T14:50:45.015Z,2.50
2023-05-13T14:53:11.703Z,2.25
2023-05-13T14:55:38.338Z,2.33
2023-05-13T14:58:04.845Z,2.50
2023-05-13T15:00:31.882Z,2.17
2023-05-13T15:02:58.491Z,2.42
2023-05-13T15:05:26.503Z,2.00
2023-05-13T15:07:52.972Z,1.55
2023-05-13T15:10:19.606Z,1.52
2023-05-13T15:12:46.217Z,1.52
2023-05-13T15:15:12.759Z,1.70
2023-05-13T15:17:39.337Z,1.88
2023-05-13T15:20:06.516Z,1.73
2023-05-13T15:22:34.282Z,1.75
2023-05-13T15:25:00.915Z,1.50
2023-05-13T15:27:28.071Z,1.73
2023-05-13T15:29:54.829Z,1.58
2023-05-13T15:32:21.324Z,1.50
2023-05-13T15:34:47.791Z,1.48
2023-05-13T15:37:14.246Z,1.55
2023-05-13T15:39:40.955Z,1.80
2023-05-13T15:42:07.522Z,1.48
2023-05-13T15:44:33.990Z,1.60
2023-05-13T15:47:00.602Z,1.30
2023-05-13T15:49:27.391Z,1.20
2023-05-13T15:51:55.923Z,1.27
2023-05-13T15:54:22.814Z,1.40
2023-05-13T15:56:49.366Z,1.30
2023-05-13T15:59:15.996Z,1.13
2023-05-13T16:01:42.634Z,1.23
2023-05-13T16:04:09.211Z,0.98
2023-05-13T16:06:35.723Z,1.20
2023-05-13T16:09:02.197Z,1.10
2023-05-13T16:11:28.892Z,1.30
2023-05-13T16:13:55.344Z,1.45
2023-05-13T16:16:21.863Z,1.08
2023-05-13T16:18:48.451Z,1.33
2023-05-13T16:21:14.979Z,1.00
2023-05-13T16:23:41.445Z,1.00
2023-05-13T16:26:07.901Z,0.60
2023-05-13T16:28:34.373Z,1.27
2023-05-13T16:31:01.351Z,0.95
2023-05-13T16:33:28.073Z,0.82
2023-05-13T16:35:54.539Z,0.82
2023-05-13T16:38:21.129Z,1.85
2023-05-13T16:40:47.786Z,2.50
2023-05-13T16:43:14.255Z,1.50
2023-05-13T16:45:40.864Z,1.50
2023-05-13T16:48:07.430Z,1.63
2023-05-13T16:50:33.945Z,1.50
2023-05-13T16:53:00.433Z,1.38
2023-05-13T16:55:26.899Z,1.55
2023-05-13T16:57:56.018Z,1.77
2023-05-13T17:00:22.800Z,1.40
2023-05-13T17:02:49.607Z,1.25
2023-05-13T17:05:16.195Z,1.25
2023-05-13T17:07:42.669Z,1.20
2023-05-13T17:10:09.424Z,1.10
2023-05-13T17:12:35.872Z,1.20
2023-05-13T17:15:03.501Z,1.38
2023-05-13T17:17:30.031Z,1.10
2023-05-13T17:19:57.555Z,1.38
2023-05-13T17:22:24.076Z,1.20
2023-05-13T17:24:50.624Z,1.25
2023-05-13T17:27:17.129Z,1.00
2023-05-13T17:29:43.615Z,1.33
2023-05-13T17:32:10.079Z,1.20
2023-05-13T17:34:36.562Z,0.98
2023-05-13T17:37:03.085Z,1.13
2023-05-13T17:39:29.594Z,1.05
2023-05-13T17:41:56.085Z,1.40
2023-05-13T17:44:23.828Z,1.20
2023-05-13T17:46:50.471Z,1.13
2023-05-13T17:49:17.046Z,1.40
2023-05-13T17:51:43.544Z,1.20
2023-05-13T17:54:11.327Z,1.08
2023-05-13T17:56:37.781Z,1.10
2023-05-13T17:59:04.294Z,1.00
2023-05-13T18:01:30.798Z,1.30
2023-05-13T18:03:57.345Z,1.15
2023-05-13T18:06:23.843Z,1.30
2023-05-13T18:08:50.324Z,1.10
2023-05-13T18:11:16.789Z,1.60
2023-05-13T18:13:43.276Z,1.35
2023-05-13T18:16:10.895Z,1.10
2023-05-13T18:18:37.444Z,1.10
2023-05-13T18:21:04.092Z,1.15
2023-05-13T18:23:32.532Z,1.20
2023-05-13T18:25:59.248Z,1.25
2023-05-13T18:28:25.792Z,1.00
2023-05-13T18:30:52.267Z,0.80
2023-05-13T18:33:21.889Z,0.77
2023-05-13T18:35:48.606Z,0.85
2023-05-13T18:38:15.070Z,0.95
2023-05-13T18:40:41.536Z,1.95
2023-05-13T18:43:08.003Z,1.60
2023-05-13T18:45:34.507Z,1.15
2023-05-13T18:48:01.082Z,1.00
2023-05-13T18:50:27.657Z,1.10
2023-05-13T18:52:54.179Z,0.80
2023-05-13T18:55:20.965Z,0.90
2023-05-13T18:57:47.411Z,0.80
2023-05-13T19:00:14.223Z,0.80
2023-05-13T19:02:40.897Z,1.00
2023-05-13T19:05:08.135Z,0.70
2023-05-13T19:07:34.643Z,0.60
2023-05-13T19:10:01.114Z,0.60
2023-05-13T19:12:27.995Z,0.60
2023-05-13T19:14:54.679Z,0.70
2023-05-13T19:17:21.278Z,0.70
2023-05-13T19:19:47.771Z,0.70
2023-05-13T19:22:14.263Z,0.80
2023-05-13T19:24:40.806Z,0.70
2023-05-13T19:27:07.259Z,0.70
2023-05-13T19:29:33.743Z,0.80
2023-05-13T19:32:00.332Z,0.70
2023-05-13T19:34:27.079Z,0.70
2023-05-13T19:36:53.620Z,0.73
2023-05-13T19:39:20.070Z,0.90
2023-05-13T19:41:48.217Z,0.60
2023-05-13T19:44:14.695Z,0.60
2023-05-13T19:46:41.437Z,0.50
2023-05-13T19:49:08.983Z,0.50
2023-05-13T19:51:35.499Z,0.60
2023-05-13T19:54:02.132Z,0.50
2023-05-13T19:56:28.867Z,0.50
2023-05-13T19:58:55.384Z,0.60
2023-05-13T20:01:21.929Z,0.60
2023-05-13T20:03:48.611Z,0.65
2023-05-13T20:06:15.192Z,0.70
2023-05-13T20:08:41.645Z,0.60
2023-05-13T20:11:08.213Z,0.60
2023-05-13T20:13:34.716Z,0.80
2023-05-13T20:16:01.190Z,0.70
2023-05-13T20:18:27.755Z,0.70
2023-05-13T20:20:54.411Z,0.80
2023-05-13T20:23:21.018Z,0.80
2023-05-13T20:25:47.482Z,1.00
2023-05-13T20:28:13.957Z,0.80
2023-05-13T20:30:42.529Z,0.90
2023-05-13T20:33:09.106Z,0.88
2023-05-13T20:35:36.943Z,1.10
2023-05-13T20:38:03.421Z,0.95
2023-05-13T20:40:29.946Z,1.10
2023-05-13T20:42:56.439Z,1.52
2023-05-13T20:45:22.913Z,1.80
2023-05-13T20:47:49.357Z,2.42
2023-05-13T20:50:16.032Z,2.25
2023-05-13T20:52:42.506Z,2.20
2023-05-13T20:55:09.366Z,2.60
2023-05-13T20:57:35.835Z,2.70
2023-05-13T21:00:02.355Z,2.97
2023-05-13T21:02:28.844Z,3.10
2023-05-13T21:04:55.686Z,3.40
2023-05-13T21:07:22.203Z,3.22
2023-05-13T21:09:48.654Z,3.22
2023-05-13T21:12:15.137Z,3.10
2023-05-13T21:14:41.586Z,3.00
2023-05-13T21:17:08.336Z,2.53
2023-05-13T21:19:35.050Z,2.38
2023-05-13T21:22:05.808Z,2.40
2023-05-13T21:24:32.289Z,2.08
2023-05-13T21:26:58.765Z,1.88
2023-05-13T21:29:25.287Z,1.67
2023-05-13T21:31:51.792Z,1.38
2023-05-13T21:34:18.267Z,1.40
2023-05-13T21:36:44.755Z,1.10
2023-05-13T21:39:11.285Z,1.10
2023-05-13T21:41:38.115Z,1.13
2023-05-13T21:44:04.697Z,1.20
2023-05-13T21:46:31.165Z,0.98
2023-05-13T21:48:59.211Z,1.02
2023-05-13T21:51:25.683Z,0.90
2023-05-13T21:53:52.130Z,0.90
2023-05-13T21:56:18.604Z,0.90
2023-05-13T21:58:45.069Z,1.10
2023-05-13T22:01:11.613Z,1.20
2023-05-13T22:03:38.216Z,1.00
2023-05-13T22:06:04.729Z,1.33
2023-05-13T22:08:31.209Z,1.10
2023-05-13T22:10:57.732Z,1.17
2023-05-13T22:13:25.609Z,1.05
2023-05-13T22:15:52.181Z,0.90
2023-05-13T22:18:18.784Z,0.90
2023-05-13T22:20:45.417Z,1.15
2023-05-13T22:23:11.924Z,1.00
2023-05-13T22:25:38.409Z,0.88
2023-05-13T22:28:04.974Z,0.88
2023-05-13T22:30:31.428Z,0.95
2023-05-13T22:32:57.964Z,1.08
2023-05-13T22:35:24.531Z,0.85
2023-05-13T22:37:52.589Z,0.90
2023-05-13T22:40:19.208Z,1.05
2023-05-13T22:42:45.674Z,1.00
2023-05-13T22:45:12.185Z,0.98
2023-05-13T22:47:38.776Z,0.90
2023-05-13T22:50:05.816Z,1.00
2023-05-13T22:52:32.304Z,1.10
2023-05-13T22:54:58.757Z,1.20
2023-05-13T22:57:26.980Z,1.00
2023-05-13T22:59:53.506Z,1.10
2023-05-13T23:02:20.081Z,1.02
2023-05-13T23:04:46.551Z,1.10
2023-05-13T23:07:13.051Z,1.02
2023-05-13T23:09:39.554Z,1.08
2023-05-13T23:12:06.655Z,1.52
2023-05-13T23:14:33.121Z,1.00
2023-05-13T23:16:59.561Z,1.02
2023-05-13T23:19:26.198Z,1.20
2023-05-13T23:21:52.794Z,1.00
2023-05-13T23:24:19.253Z,0.90
2023-05-13T23:26:47.399Z,1.55
2023-05-13T23:29:14.130Z,1.10
2023-05-13T23:31:40.757Z,1.00
2023-05-13T23:34:08.126Z,1.10
2023-05-13T23:36:34.634Z,0.90
2023-05-13T23:39:01.124Z,0.90
2023-05-13T23:41:27.589Z,0.95
2023-05-13T23:43:54.063Z,0.70
2023-05-13T23:46:21.115Z,0.90
2023-05-13T23:48:47.585Z,0.75
2023-05-13T23:51:14.032Z,1.10
2023-05-13T23:53:40.654Z,1.10
2023-05-13T23:56:07.232Z,1.20
2023-05-13T23:58:33.704Z,1.20
